createdAt,value
2018-04-30T00:02:16.345Z,7.43
2018-04-30T00:04:44.565Z,2.53
2018-04-30T00:07:12.786Z,3.10
2018-04-30T00:09:41.833Z,3.17
2018-04-30T00:12:10.062Z,3.43
2018-04-30T00:14:38.273Z,7.63
2018-04-30T00:17:06.495Z,3.53
2018-04-30T00:19:34.709Z,5.27
2018-04-30T00:22:02.925Z,3.63
2018-04-30T00:24:31.167Z,2.83
2018-04-30T00:27:00.126Z,4.10
2018-04-30T00:29:28.422Z,6.17
2018-04-30T00:31:56.575Z,6.80
2018-04-30T00:34:24.797Z,6.87
2018-04-30T00:36:53.784Z,4.17
2018-04-30T00:39:21.989Z,4.63
2018-04-30T00:41:50.965Z,3.23
2018-04-30T00:44:19.191Z,2.43
2018-04-30T00:46:48.164Z,3.00
2018-04-30T00:49:16.405Z,3.60
2018-04-30T00:51:44.641Z,2.80
2018-04-30T00:54:24.740Z,4.07
2018-04-30T00:56:53.720Z,2.90
2018-04-30T00:59:22.002Z,5.77
2018-04-30T01:01:50.202Z,5.00
2018-04-30T01:04:18.414Z,2.90
2018-04-30T01:06:47.406Z,5.73
2018-04-30T01:09:16.412Z,3.87
2018-04-30T01:11:45.393Z,6.57
2018-04-30T01:14:13.616Z,3.07
2018-04-30T01:16:42.599Z,2.90
2018-04-30T01:19:10.814Z,5.80
2018-04-30T01:21:39.045Z,2.90
2018-04-30T01:24:07.265Z,5.60
2018-04-30T01:26:35.481Z,3.03
2018-04-30T01:29:03.701Z,5.70
2018-04-30T01:31:31.914Z,5.63
2018-04-30T01:34:00.130Z,3.50
2018-04-30T01:36:29.129Z,3.47
2018-04-30T01:38:58.106Z,4.73
2018-04-30T01:41:26.313Z,5.60
2018-04-30T01:43:54.537Z,3.50
2018-04-30T01:46:22.756Z,3.40
2018-04-30T01:48:50.994Z,5.80
2018-04-30T01:51:19.981Z,6.37
2018-04-30T01:53:48.993Z,4.37
2018-04-30T01:56:17.199Z,4.70
2018-04-30T01:58:45.448Z,4.27
2018-04-30T02:01:13.645Z,4.10
2018-04-30T02:03:42.640Z,4.97
2018-04-30T02:06:10.866Z,4.97
2018-04-30T02:08:39.069Z,5.80
2018-04-30T02:11:07.298Z,6.50
2018-04-30T02:13:35.514Z,5.23
2018-04-30T02:16:04.494Z,5.10
2018-04-30T02:18:32.709Z,5.93
2018-04-30T02:21:01.688Z,5.47
2018-04-30T02:23:29.896Z,6.53
2018-04-30T02:25:58.884Z,7.47
2018-04-30T02:28:27.108Z,9.33
2018-04-30T02:30:55.325Z,11.17
2018-04-30T02:33:23.549Z,10.13
2018-04-30T02:35:51.781Z,10.93
2018-04-30T02:38:20.019Z,11.73
2018-04-30T02:40:48.249Z,10.37
2018-04-30T02:43:16.474Z,12.53
2018-04-30T02:45:44.710Z,10.40
2018-04-30T02:48:13.693Z,10.77
2018-04-30T02:50:41.924Z,12.77
2018-04-30T02:53:10.153Z,13.03
2018-04-30T02:55:38.383Z,13.63
2018-04-30T02:58:07.382Z,16.13
2018-04-30T03:00:36.366Z,15.83
2018-04-30T03:03:04.631Z,12.23
2018-04-30T03:05:32.826Z,13.03
2018-04-30T03:08:01.049Z,14.70
2018-04-30T03:10:30.033Z,15.50
2018-04-30T03:12:58.358Z,13.27
2018-04-30T03:15:26.577Z,14.63
2018-04-30T03:17:54.804Z,9.90
2018-04-30T03:20:23.417Z,12.37
2018-04-30T03:22:51.605Z,13.00
2018-04-30T03:25:20.593Z,14.00
2018-04-30T03:27:48.825Z,11.87
2018-04-30T03:30:17.067Z,12.83
2018-04-30T03:32:45.292Z,13.63
2018-04-30T03:35:13.534Z,12.30
2018-04-30T03:37:41.745Z,11.60
2018-04-30T03:40:10.731Z,11.30
2018-04-30T03:42:38.949Z,10.53
2018-04-30T03:45:07.184Z,14.37
2018-04-30T03:47:35.421Z,11.97
2018-04-30T03:50:04.405Z,9.00
2018-04-30T03:52:32.629Z,11.93
2018-04-30T03:55:00.861Z,11.30
2018-04-30T03:57:29.080Z,9.30
2018-04-30T03:59:57.305Z,10.33
2018-04-30T04:02:37.354Z,7.80
2018-04-30T04:05:17.617Z,8.37
2018-04-30T04:07:45.863Z,8.13
2018-04-30T04:10:14.080Z,7.70
2018-04-30T04:12:43.082Z,8.50
2018-04-30T04:15:11.277Z,7.97
2018-04-30T04:17:40.258Z,6.80
2018-04-30T04:20:08.677Z,8.37
2018-04-30T04:22:37.666Z,6.63
2018-04-30T04:25:05.873Z,8.67
2018-04-30T04:27:34.859Z,6.23
2018-04-30T04:30:03.074Z,5.93
2018-04-30T04:32:32.077Z,5.93
2018-04-30T04:35:01.048Z,5.80
2018-04-30T04:37:29.264Z,5.57
2018-04-30T04:39:58.261Z,4.53
2018-04-30T04:42:26.484Z,4.90
2018-04-30T04:44:54.715Z,5.30
2018-04-30T04:47:23.702Z,4.90
2018-04-30T04:49:51.933Z,4.47
2018-04-30T04:52:20.931Z,5.50
2018-04-30T04:54:49.155Z,4.57
2018-04-30T04:57:17.381Z,4.30
2018-04-30T04:59:45.621Z,8.63
2018-04-30T05:02:13.845Z,5.17
2018-04-30T05:04:42.085Z,3.63
2018-04-30T05:07:11.064Z,3.73
2018-04-30T05:09:39.282Z,4.90
2018-04-30T05:12:08.375Z,3.50
2018-04-30T05:14:36.564Z,3.53
2018-04-30T05:17:05.575Z,3.27
2018-04-30T05:19:33.793Z,3.70
2018-04-30T05:22:02.006Z,4.20
2018-04-30T05:24:30.209Z,3.50
2018-04-30T05:26:58.433Z,3.30
2018-04-30T05:29:27.413Z,7.90
2018-04-30T05:31:55.625Z,7.77
2018-04-30T05:34:24.618Z,10.40
2018-04-30T05:36:53.613Z,9.80
2018-04-30T05:39:21.893Z,9.70
2018-04-30T05:41:50.201Z,10.13
2018-04-30T05:44:18.408Z,5.77
2018-04-30T05:46:46.651Z,9.70
2018-04-30T05:49:14.877Z,9.30
2018-04-30T05:51:43.862Z,8.63
2018-04-30T05:54:12.093Z,8.60
2018-04-30T05:56:40.304Z,2.80
2018-04-30T05:59:08.589Z,3.23
2018-04-30T06:01:36.808Z,4.93
2018-04-30T06:04:05.030Z,8.50
2018-04-30T06:06:34.049Z,8.50
2018-04-30T06:09:02.260Z,4.77
2018-04-30T06:11:30.501Z,2.90
2018-04-30T06:13:58.710Z,7.40
2018-04-30T06:16:26.973Z,3.50
2018-04-30T06:18:55.217Z,2.43
2018-04-30T06:21:23.438Z,2.20
2018-04-30T06:23:51.656Z,7.50
2018-04-30T06:26:19.893Z,8.60
2018-04-30T06:28:48.199Z,11.13
2018-04-30T06:31:16.437Z,7.23
2018-04-30T06:33:44.656Z,4.13
2018-04-30T06:36:12.883Z,5.17
2018-04-30T06:38:41.856Z,4.90
2018-04-30T06:41:10.081Z,3.87
2018-04-30T06:43:39.080Z,2.80
2018-04-30T06:46:08.097Z,8.70
2018-04-30T06:48:37.068Z,5.23
2018-04-30T06:51:05.280Z,7.83
2018-04-30T06:53:34.312Z,10.03
2018-04-30T06:56:02.497Z,11.00
2018-04-30T06:58:30.758Z,11.17
2018-04-30T07:00:59.772Z,3.87
2018-04-30T07:03:27.969Z,2.60
2018-04-30T07:05:56.201Z,10.17
2018-04-30T07:08:24.412Z,8.13
2018-04-30T07:10:52.639Z,7.37
2018-04-30T07:13:20.861Z,3.97
2018-04-30T07:15:49.105Z,10.63
2018-04-30T07:18:17.382Z,3.23
2018-04-30T07:20:45.680Z,11.00
2018-04-30T07:23:13.908Z,7.23
2018-04-30T07:25:42.129Z,3.60
2018-04-30T07:28:10.346Z,2.70
2018-04-30T07:30:38.556Z,4.00
2018-04-30T07:33:06.788Z,5.63
2018-04-30T07:35:35.007Z,11.00
2018-04-30T07:38:03.234Z,13.00
2018-04-30T07:40:31.466Z,10.60
2018-04-30T07:43:00.462Z,6.23
2018-04-30T07:45:28.775Z,12.50
2018-04-30T07:47:57.772Z,10.60
2018-04-30T07:50:26.773Z,12.80
2018-04-30T07:52:54.998Z,4.37
2018-04-30T07:55:23.245Z,11.63
2018-04-30T07:57:51.495Z,10.10
2018-04-30T08:00:19.739Z,12.40
2018-04-30T08:02:48.741Z,11.70
2018-04-30T08:05:17.733Z,3.87
2018-04-30T08:07:46.781Z,12.57
2018-04-30T08:10:15.014Z,13.43
2018-04-30T08:12:43.232Z,8.30
2018-04-30T08:15:12.835Z,12.67
2018-04-30T08:17:41.150Z,12.50
2018-04-30T08:20:09.324Z,3.87
2018-04-30T08:22:38.337Z,13.50
2018-04-30T08:25:07.887Z,12.90
2018-04-30T08:27:38.950Z,12.43
2018-04-30T08:30:07.989Z,12.40
2018-04-30T08:32:36.936Z,12.90
2018-04-30T08:35:05.936Z,3.77
2018-04-30T08:37:34.914Z,12.33
2018-04-30T08:40:03.906Z,13.57
2018-04-30T08:42:32.141Z,12.70
2018-04-30T08:45:03.272Z,12.87
2018-04-30T08:47:32.414Z,11.57
2018-04-30T08:50:00.848Z,12.33
2018-04-30T08:52:29.061Z,13.17
2018-04-30T08:54:58.054Z,13.60
2018-04-30T08:57:29.572Z,13.23
2018-04-30T08:59:59.874Z,13.90
2018-04-30T09:02:31.949Z,13.37
2018-04-30T09:05:00.158Z,13.93
2018-04-30T09:07:28.396Z,13.43
2018-04-30T09:09:56.613Z,13.70
2018-04-30T09:12:25.529Z,14.37
2018-04-30T09:14:53.907Z,14.97
2018-04-30T09:17:22.105Z,13.27
2018-04-30T09:19:50.356Z,13.97
2018-04-30T09:22:18.607Z,14.53
2018-04-30T09:24:46.899Z,15.00
2018-04-30T09:27:15.382Z,15.53
2018-04-30T09:29:43.642Z,15.00
2018-04-30T09:32:12.913Z,14.93
2018-04-30T09:34:41.137Z,14.57
2018-04-30T09:37:10.161Z,14.77
2018-04-30T09:39:39.160Z,14.90
2018-04-30T09:42:08.156Z,14.23
2018-04-30T09:44:37.159Z,14.07
2018-04-30T09:47:06.177Z,14.30
2018-04-30T09:49:35.181Z,13.90
2018-04-30T09:52:03.392Z,14.73
2018-04-30T09:54:32.848Z,14.13
2018-04-30T09:57:01.021Z,14.40
2018-04-30T09:59:30.669Z,15.33
2018-04-30T10:01:59.686Z,16.63
2018-04-30T10:04:27.935Z,17.67
2018-04-30T10:06:56.189Z,17.13
2018-04-30T10:09:24.393Z,17.20
2018-04-30T10:11:52.639Z,17.43
2018-04-30T10:14:20.869Z,17.90
2018-04-30T10:16:49.879Z,18.37
2018-04-30T10:19:19.316Z,19.10
2018-04-30T10:21:48.478Z,18.43
2018-04-30T10:24:18.360Z,19.53
2018-04-30T10:26:46.685Z,18.27
2018-04-30T10:29:15.685Z,20.07
2018-04-30T10:31:44.806Z,21.40
2018-04-30T10:34:12.943Z,21.30
2018-04-30T10:36:41.157Z,21.60
2018-04-30T10:39:09.393Z,21.50
2018-04-30T10:41:37.613Z,22.23
2018-04-30T10:44:05.845Z,22.67
2018-04-30T10:46:34.835Z,23.33
2018-04-30T10:49:03.831Z,24.17
2018-04-30T10:51:32.171Z,23.47
2018-04-30T10:54:00.317Z,20.93
2018-04-30T10:56:29.317Z,20.80
2018-04-30T10:58:57.563Z,19.70
2018-04-30T11:01:25.793Z,19.60
2018-04-30T11:03:54.022Z,18.87
2018-04-30T11:06:22.272Z,18.30
2018-04-30T11:08:50.493Z,15.53
2018-04-30T11:11:18.733Z,18.93
2018-04-30T11:13:46.958Z,18.37
2018-04-30T11:16:15.197Z,19.00
2018-04-30T11:18:44.248Z,19.10
2018-04-30T11:21:13.237Z,18.37
2018-04-30T11:23:42.254Z,18.97
2018-04-30T11:26:11.255Z,19.83
2018-04-30T11:28:40.243Z,19.13
2018-04-30T11:31:08.477Z,19.63
2018-04-30T11:33:36.705Z,19.07
2018-04-30T11:36:05.009Z,21.00
2018-04-30T11:38:34.817Z,20.57
2018-04-30T11:41:03.051Z,21.70
2018-04-30T11:43:32.589Z,22.93
2018-04-30T11:46:00.828Z,22.90
2018-04-30T11:48:29.052Z,21.80
2018-04-30T11:50:57.269Z,23.33
2018-04-30T11:53:26.565Z,24.67
2018-04-30T11:55:54.816Z,24.87
2018-04-30T11:58:23.105Z,25.17
2018-04-30T12:00:51.350Z,26.83
2018-04-30T12:03:19.573Z,25.33
2018-04-30T12:05:47.804Z,24.50
2018-04-30T12:08:16.057Z,25.93
2018-04-30T12:10:45.150Z,23.27
2018-04-30T12:13:13.345Z,25.43
2018-04-30T12:15:41.576Z,23.63
2018-04-30T12:18:09.793Z,21.50
2018-04-30T12:20:38.050Z,21.90
2018-04-30T12:23:06.277Z,21.83
2018-04-30T12:25:34.541Z,19.77
2018-04-30T12:28:02.768Z,20.23
2018-04-30T12:30:30.993Z,21.43
2018-04-30T12:32:59.241Z,20.30
2018-04-30T12:35:27.446Z,17.87
2018-04-30T12:37:56.441Z,20.27
2018-04-30T12:40:24.663Z,19.17
2018-04-30T12:42:52.913Z,19.00
2018-04-30T12:45:21.129Z,19.67
2018-04-30T12:47:50.238Z,15.70
2018-04-30T12:50:19.258Z,14.50
2018-04-30T12:52:47.503Z,16.20
2018-04-30T12:55:15.732Z,10.83
2018-04-30T12:57:44.795Z,11.07
2018-04-30T13:00:13.025Z,9.87
2018-04-30T13:02:41.249Z,9.20
2018-04-30T13:05:09.508Z,8.63
2018-04-30T13:07:37.718Z,7.73
2018-04-30T13:10:05.939Z,8.27
2018-04-30T13:12:34.149Z,7.67
2018-04-30T13:15:03.133Z,7.23
2018-04-30T13:17:31.353Z,7.37
2018-04-30T13:19:59.590Z,5.87
2018-04-30T13:22:27.809Z,6.70
2018-04-30T13:24:56.841Z,6.33
2018-04-30T13:27:25.086Z,4.40
2018-04-30T13:29:53.290Z,5.00
2018-04-30T13:32:22.277Z,5.70
2018-04-30T13:34:54.533Z,4.17
2018-04-30T13:37:22.794Z,4.80
2018-04-30T13:39:50.973Z,4.07
2018-04-30T13:42:19.997Z,4.97
2018-04-30T13:44:49.231Z,3.67
2018-04-30T13:47:17.542Z,3.63
2018-04-30T13:49:45.773Z,4.13
2018-04-30T13:52:14.009Z,3.40
2018-04-30T13:54:43.170Z,2.80
2018-04-30T13:57:11.280Z,2.50
2018-04-30T13:59:39.501Z,3.03
2018-04-30T14:02:07.757Z,3.47
2018-04-30T14:04:35.978Z,2.60
2018-04-30T14:07:04.188Z,2.37
2018-04-30T14:09:33.217Z,2.50
2018-04-30T14:12:01.421Z,2.93
2018-04-30T14:14:29.644Z,2.70
2018-04-30T14:16:57.849Z,2.77
2018-04-30T14:19:27.319Z,3.17
2018-04-30T14:21:56.253Z,2.67
2018-04-30T14:24:24.468Z,3.17
2018-04-30T14:26:53.510Z,2.20
2018-04-30T14:29:21.737Z,2.60
2018-04-30T14:31:50.068Z,2.50
2018-04-30T14:34:18.317Z,2.60
2018-04-30T14:36:46.554Z,2.10
2018-04-30T14:39:14.758Z,1.87
2018-04-30T14:41:42.982Z,1.50
2018-04-30T14:44:11.188Z,1.80
2018-04-30T14:46:40.165Z,1.70
2018-04-30T14:49:08.392Z,1.50
2018-04-30T14:51:37.393Z,1.40
2018-04-30T14:54:06.386Z,1.70
2018-04-30T14:56:34.592Z,1.30
2018-04-30T14:59:02.800Z,1.50
2018-04-30T15:01:31.022Z,1.13
2018-04-30T15:03:59.238Z,1.30
2018-04-30T15:06:28.226Z,1.40
2018-04-30T15:08:56.484Z,1.30
2018-04-30T15:11:24.689Z,1.33
2018-04-30T15:13:52.901Z,1.20
2018-04-30T15:16:21.130Z,2.10
2018-04-30T15:18:49.369Z,1.57
2018-04-30T15:21:17.571Z,1.60
2018-04-30T15:23:46.568Z,1.40
2018-04-30T15:26:14.785Z,1.23
2018-04-30T15:28:42.997Z,1.33
2018-04-30T15:31:11.222Z,1.20
2018-04-30T15:33:39.437Z,1.37
2018-04-30T15:36:08.448Z,1.50
2018-04-30T15:38:37.414Z,1.40
2018-04-30T15:41:05.625Z,1.37
2018-04-30T15:43:34.607Z,1.30
2018-04-30T15:46:02.813Z,1.37
2018-04-30T15:48:31.036Z,1.00
2018-04-30T15:50:59.249Z,0.90
2018-04-30T15:53:27.737Z,1.20
2018-04-30T15:55:56.697Z,1.20
2018-04-30T15:58:25.689Z,1.17
2018-04-30T16:00:53.897Z,1.20
2018-04-30T16:03:22.884Z,1.30
2018-04-30T16:05:51.161Z,1.10
2018-04-30T16:08:19.400Z,1.27
2018-04-30T16:10:47.641Z,1.10
2018-04-30T16:13:15.846Z,1.37
2018-04-30T16:15:44.841Z,1.17
2018-04-30T16:18:13.075Z,1.53
2018-04-30T16:20:41.281Z,1.40
2018-04-30T16:23:09.488Z,1.50
2018-04-30T16:25:37.701Z,1.53
2018-04-30T16:28:06.678Z,1.60
2018-04-30T16:30:34.894Z,1.40
2018-04-30T16:33:03.864Z,1.30
2018-04-30T16:35:32.085Z,1.37
2018-04-30T16:38:01.081Z,1.20
2018-04-30T16:40:29.295Z,1.23
2018-04-30T16:42:58.277Z,1.30
2018-04-30T16:45:26.505Z,1.10
2018-04-30T16:47:54.721Z,1.37
2018-04-30T16:50:23.745Z,1.43
2018-04-30T16:52:51.937Z,1.13
2018-04-30T16:55:20.154Z,1.00
2018-04-30T16:57:49.174Z,1.10
2018-04-30T17:00:17.402Z,1.20
2018-04-30T17:02:46.472Z,1.23
2018-04-30T17:05:14.808Z,1.27
2018-04-30T17:07:42.982Z,1.47
2018-04-30T17:10:11.197Z,1.40
2018-04-30T17:12:39.409Z,1.40
2018-04-30T17:15:08.393Z,1.20
2018-04-30T17:17:36.605Z,1.23
2018-04-30T17:20:05.599Z,1.30
2018-04-30T17:22:34.590Z,1.30
2018-04-30T17:25:02.806Z,1.17
2018-04-30T17:27:31.029Z,1.20
2018-04-30T17:29:59.245Z,1.37
2018-04-30T17:32:27.512Z,1.37
2018-04-30T17:34:56.183Z,1.67
2018-04-30T17:37:24.391Z,1.40
2018-04-30T17:39:52.627Z,1.20
2018-04-30T17:42:20.843Z,1.70
2018-04-30T17:44:49.069Z,1.30
2018-04-30T17:47:18.061Z,1.73
2018-04-30T17:49:46.288Z,1.77
2018-04-30T17:52:15.373Z,1.20
2018-04-30T17:54:44.274Z,1.30
2018-04-30T17:57:12.510Z,1.27
2018-04-30T17:59:41.485Z,1.50
2018-04-30T18:02:10.105Z,1.47
2018-04-30T18:04:39.086Z,1.40
2018-04-30T18:07:07.348Z,1.30
2018-04-30T18:09:35.521Z,1.50
2018-04-30T18:12:03.849Z,1.20
2018-04-30T18:14:32.094Z,1.20
2018-04-30T18:17:00.380Z,1.40
2018-04-30T18:19:29.363Z,1.50
2018-04-30T18:21:58.356Z,1.43
2018-04-30T18:24:27.367Z,1.40
2018-04-30T18:26:56.367Z,1.60
2018-04-30T18:29:24.564Z,1.47
2018-04-30T18:31:53.583Z,1.40
2018-04-30T18:34:21.866Z,1.63
2018-04-30T18:36:50.105Z,1.50
2018-04-30T18:39:19.072Z,2.10
2018-04-30T18:41:47.492Z,1.87
2018-04-30T18:44:15.629Z,2.03
2018-04-30T18:46:43.921Z,1.97
2018-04-30T18:49:12.893Z,2.40
2018-04-30T18:51:41.113Z,2.83
2018-04-30T18:54:10.084Z,1.47
2018-04-30T18:56:38.295Z,1.70
2018-04-30T18:59:07.273Z,1.33
2018-04-30T19:01:35.491Z,1.20
2018-04-30T19:04:03.710Z,1.13
2018-04-30T19:06:31.951Z,1.10
2018-04-30T19:09:00.168Z,0.97
2018-04-30T19:11:29.147Z,1.10
2018-04-30T19:13:57.454Z,1.20
2018-04-30T19:16:25.648Z,1.20
2018-04-30T19:18:54.629Z,1.20
2018-04-30T19:21:22.852Z,0.90
2018-04-30T19:23:51.078Z,1.30
2018-04-30T19:26:19.309Z,1.17
2018-04-30T19:28:48.377Z,1.00
2018-04-30T19:31:16.628Z,1.00
2018-04-30T19:33:44.841Z,1.30
2018-04-30T19:36:13.054Z,0.90
2018-04-30T19:38:41.285Z,1.27
2018-04-30T19:41:09.513Z,1.30
2018-04-30T19:43:37.727Z,1.40
2018-04-30T19:46:05.934Z,1.20
2018-04-30T19:48:34.960Z,1.70
2018-04-30T19:51:03.901Z,1.30
2018-04-30T19:53:32.222Z,1.00
2018-04-30T19:56:00.509Z,1.33
2018-04-30T19:58:29.549Z,1.10
2018-04-30T20:00:59.101Z,1.43
2018-04-30T20:03:29.403Z,1.13
2018-04-30T20:05:58.433Z,1.20
2018-04-30T20:08:26.633Z,1.30
2018-04-30T20:10:54.851Z,1.40
2018-04-30T20:13:23.152Z,2.20
2018-04-30T20:15:51.394Z,1.90
2018-04-30T20:18:19.577Z,2.07
2018-04-30T20:20:47.825Z,1.90
2018-04-30T20:23:16.125Z,1.93
2018-04-30T20:25:44.389Z,2.50
2018-04-30T20:28:13.381Z,2.57
2018-04-30T20:30:41.612Z,1.70
2018-04-30T20:33:09.850Z,1.93
2018-04-30T20:35:39.009Z,1.60
2018-04-30T20:38:07.345Z,2.17
2018-04-30T20:40:35.557Z,1.93
2018-04-30T20:43:03.809Z,1.83
2018-04-30T20:45:32.091Z,2.10
2018-04-30T20:48:00.320Z,2.87
2018-04-30T20:50:29.391Z,2.80
2018-04-30T20:52:57.628Z,2.83
2018-04-30T20:55:26.620Z,2.80
2018-04-30T20:57:54.834Z,3.97
2018-04-30T21:00:23.053Z,3.50
2018-04-30T21:02:51.307Z,3.20
2018-04-30T21:05:19.574Z,2.80
2018-04-30T21:07:48.554Z,2.80
2018-04-30T21:10:17.682Z,2.50
2018-04-30T21:12:45.993Z,3.23
2018-04-30T21:15:14.214Z,2.77
2018-04-30T21:17:42.517Z,2.43
2018-04-30T21:20:10.658Z,2.23
2018-04-30T21:22:38.864Z,2.37
2018-04-30T21:25:07.893Z,2.00
2018-04-30T21:27:36.114Z,2.07
2018-04-30T21:30:04.350Z,2.00
2018-04-30T21:32:32.558Z,1.87
2018-04-30T21:35:00.783Z,3.50
2018-04-30T21:37:28.997Z,2.37
2018-04-30T21:39:57.209Z,2.17
2018-04-30T21:42:25.721Z,1.63
2018-04-30T21:44:53.991Z,2.60
2018-04-30T21:47:22.246Z,2.50
2018-04-30T21:49:51.225Z,1.40
2018-04-30T21:52:19.469Z,1.30
2018-04-30T21:54:47.697Z,1.60
2018-04-30T21:57:15.914Z,1.30
2018-04-30T21:59:44.131Z,1.30
2018-04-30T22:02:12.349Z,1.10
2018-04-30T22:04:40.565Z,1.40
2018-04-30T22:07:09.577Z,1.20
2018-04-30T22:09:38.566Z,1.20
2018-04-30T22:12:06.805Z,1.37
2018-04-30T22:14:35.741Z,1.47
2018-04-30T22:17:04.665Z,1.33
2018-04-30T22:19:33.678Z,1.30
2018-04-30T22:22:03.556Z,1.33
2018-04-30T22:24:31.784Z,1.50
2018-04-30T22:27:01.369Z,1.17
2018-04-30T22:29:30.356Z,1.57
2018-04-30T22:31:58.606Z,1.33
2018-04-30T22:34:27.595Z,1.60
2018-04-30T22:36:55.809Z,1.70
2018-04-30T22:39:24.897Z,1.90
2018-04-30T22:41:53.106Z,2.67
2018-04-30T22:44:22.689Z,3.53
2018-04-30T22:46:50.907Z,13.97
2018-04-30T22:49:19.966Z,51.43
2018-04-30T22:51:48.192Z,30.27
2018-04-30T22:54:17.185Z,22.17
2018-04-30T22:56:45.424Z,15.73
2018-04-30T22:59:13.650Z,16.10
2018-04-30T23:01:41.869Z,8.90
2018-04-30T23:04:10.861Z,6.20
2018-04-30T23:06:39.135Z,9.90
2018-04-30T23:09:07.314Z,35.87
2018-04-30T23:11:35.573Z,58.70
2018-04-30T23:14:03.794Z,69.83
2018-04-30T23:16:32.032Z,48.23
2018-04-30T23:19:00.253Z,31.87
2018-04-30T23:21:28.492Z,16.07
2018-04-30T23:23:57.480Z,10.53
2018-04-30T23:26:25.697Z,6.53
2018-04-30T23:28:53.923Z,4.10
2018-04-30T23:31:22.139Z,2.50
2018-04-30T23:33:50.371Z,1.87
2018-04-30T23:36:19.998Z,1.70
2018-04-30T23:38:48.221Z,1.43
2018-04-30T23:41:16.459Z,1.30
2018-04-30T23:43:44.801Z,1.33
2018-04-30T23:46:13.141Z,1.10
2018-04-30T23:48:41.359Z,1.30
2018-04-30T23:51:09.593Z,0.90
2018-04-30T23:53:38.578Z,1.00
2018-04-30T23:56:06.808Z,1.10
2018-04-30T23:58:35.021Z,0.90
